Terminal Aerodrome Forecast
Issued by NWS

Home | Current Version | Previous Version | Text Only | Print | Product List | Glossary On
Versions: 1 2 3 4 5 6 7 8 9 10 11 12 13 14 15 16 17 18 19 20 21 22 23 24 25 26 27 28 29 30 31 32 33 34 35 36 37 38 39 40 41 42 43 44 45 46 47
000
FTAK31 PANC 252341 AAC
TAFAEN
TAF AMD
PAEN 252341Z 2600/2624 VRB04KT P6SM SCT018 BKN080
      TEMPO 2600/2604 BKN018
     FM261500 03005KT P6SM VCFG SCT070 BKN200
     FM262000 03005KT P6SM SCT200=

USA.gov is the U.S. government's official web portal to all federal, state and local government web resources and services.